Choccolocco, Alabama
Current Conditions -  °F | °C
As of 3:53 PM on Wednesday 28 Jan 2015 (Local Time) from KANB Reporting Station
Clear Clear  
Wind Chill: 57°   Ceiling: Unl
Heat Index: 57°   Visibility: 10mi
Dew Point: 24°   Wind: 0mph
Humidity: 28%   Direction: NA
Pressure: 30.23"   Gusts: NA
Location:  33.66°N, 85.7°W
Report Text: KANB 282153Z AUTO 00000KT 10SM CLR 14/M04 A3023 RMK AO2 SLP242 T01391044
Loading
Personal Weather Stations






























Interactive Weather Map New forecast layout! Learn more

10-Day Weather Forecast

Advertisements
Track Severe Weather on mobile